Time;durP1;ratioP1;P1;durP2;ratioP2;P2;SDS_P1;SDS_P2;PMS_P1;PMS_P2;Temp;Humidity;BMP_temperature;BMP_pressure;BME280_temperature;BME280_humidity;BME280_pressure;Samples;Min_cycle;Max_cycle;Signal;HPM_P1;HPM_P2
2023/02/09 00:00:19;;;;;;;10.63;2.83;;;23.40;81.50;;;;;;5069234;28;20175;-70
2023/02/09 00:02:46;;;;;;;8.87;2.87;;;23.50;81.30;;;;;;5070655;28;20552;-70
2023/02/09 00:05:14;;;;;;;10.13;3.40;;;23.70;81.30;;;;;;5069906;28;20179;-70
2023/02/09 00:07:41;;;;;;;11.90;3.50;;;23.70;80.20;;;;;;5065395;28;20627;-73
2023/02/09 00:10:09;;;;;;;8.37;2.47;;;23.70;79.70;;;;;;5069986;28;20243;-74
2023/02/09 00:15:22;;;;;;;15.33;2.83;;;23.80;79.90;;;;;;5070013;28;20213;-74
2023/02/09 00:17:49;;;;;;;10.30;2.57;;;23.90;79.50;;;;;;5066329;28;20622;-73
2023/02/09 00:20:17;;;;;;;7.77;2.17;;;23.80;79.10;;;;;;5069213;28;20210;-73
2023/02/09 00:22:44;;;;;;;10.33;2.70;;;23.90;78.70;;;;;;5070335;28;20183;-75
2023/02/09 00:25:12;;;;;;;13.70;2.60;;;23.80;78.80;;;;;;5069967;28;20596;-72
2023/02/09 00:27:39;;;;;;;12.57;2.63;;;23.90;78.90;;;;;;5070580;28;20660;-71
2023/02/09 00:30:07;;;;;;;11.37;2.63;;;24.10;79.20;;;;;;5071000;28;20186;-72
2023/02/09 00:32:34;;;;;;;14.03;2.93;;;24.20;79.30;;;;;;5071109;28;20187;-72
2023/02/09 00:35:02;;;;;;;8.60;2.67;;;24.30;79.30;;;;;;5070221;28;20266;-74
2023/02/09 00:37:29;;;;;;;12.07;3.13;;;24.40;78.60;;;;;;5070814;28;20204;-75
2023/02/09 00:39:56;;;;;;;17.10;3.60;;;24.40;78.10;;;;;;5070271;28;20186;-69
2023/02/09 00:42:24;;;;;;;10.73;2.97;;;24.50;78.40;;;;;;5070766;28;20202;-72
2023/02/09 00:44:51;;;;;;;78.63;14.63;;;24.50;78.40;;;;;;5070389;28;20183;-68
2023/02/09 00:47:19;;;;;;;16.43;3.10;;;24.40;78.70;;;;;;5069778;28;20663;-67
2023/02/09 00:49:46;;;;;;;9.37;2.37;;;24.10;79.40;;;;;;5071455;28;20198;-70
2023/02/09 00:52:13;;;;;;;14.50;3.47;;;23.80;80.40;;;;;;5069462;28;20226;-69
2023/02/09 00:54:40;;;;;;;13.87;3.03;;;23.70;81.20;;;;;;5069958;28;20579;-72
2023/02/09 00:57:08;;;;;;;9.47;2.47;;;23.50;81.40;;;;;;5069722;28;20309;-72
2023/02/09 00:59:39;;;;;;;14.33;3.33;;;23.30;82.30;;;;;;5070322;28;20186;-74
2023/02/09 01:02:06;;;;;;;13.87;3.17;;;23.20;82.80;;;;;;5071190;28;20183;-74
2023/02/09 01:04:34;;;;;;;11.37;3.03;;;23.10;83.10;;;;;;5071057;28;20262;-73
2023/02/09 01:07:01;;;;;;;11.50;3.23;;;23.00;83.90;;;;;;5071127;28;20174;-72
2023/02/09 01:09:28;;;;;;;12.10;3.53;;;23.00;84.60;;;;;;5067484;28;20191;-77
2023/02/09 01:11:56;;;;;;;10.17;3.63;;;22.90;85.40;;;;;;5070953;28;20175;-72
2023/02/09 01:14:23;;;;;;;18.07;3.80;;;22.90;85.80;;;;;;5071006;28;20184;-73
2023/02/09 01:16:51;;;;;;;9.33;3.87;;;22.80;85.70;;;;;;5071226;28;20647;-74
2023/02/09 01:19:18;;;;;;;13.77;4.20;;;22.80;85.70;;;;;;5070524;28;20226;-74
2023/02/09 01:21:47;;;;;;;15.30;5.43;;;22.80;86.50;;;;;;5071495;28;20187;-74
2023/02/09 01:24:15;;;;;;;18.87;6.77;;;22.80;87.20;;;;;;5069575;28;20282;-72
2023/02/09 01:26:42;;;;;;;23.10;8.90;;;22.80;88.10;;;;;;5070378;28;20274;-70
2023/02/09 01:29:14;;;;;;;14.90;8.93;;;22.50;88.60;;;;;;5069958;28;20188;-71
2023/02/09 01:31:42;;;;;;;15.53;9.80;;;22.40;89.40;;;;;;5070597;28;20179;-72
2023/02/09 01:34:12;;;;;;;17.57;12.10;;;22.30;89.40;;;;;;5070205;28;20191;-70
2023/02/09 01:36:39;;;;;;;21.47;13.43;;;22.30;89.80;;;;;;5071264;28;20272;-71
2023/02/09 01:39:07;;;;;;;27.33;14.27;;;22.30;90.00;;;;;;5069284;28;20548;-74
2023/02/09 01:41:34;;;;;;;27.43;14.80;;;22.30;90.00;;;;;;5074612;28;20272;-72
2023/02/09 01:44:26;;;;;;;21.10;14.63;;;22.50;89.90;;;;;;5068376;28;20190;-70
2023/02/09 01:46:53;;;;;;;21.07;12.37;;;22.70;89.60;;;;;;5070103;28;20176;-71
2023/02/09 01:49:27;;;;;;;24.40;12.97;;;22.80;88.90;;;;;;5073621;28;20321;-71
2023/02/09 01:52:06;;;;;;;18.13;11.43;;;22.80;89.00;;;;;;5074223;28;20219;-71
2023/02/09 01:54:37;;;;;;;18.53;12.00;;;22.70;88.90;;;;;;5071340;28;20210;-72
2023/02/09 01:57:12;;;;;;;20.63;10.70;;;22.60;89.00;;;;;;5074035;28;20219;-73
2023/02/09 01:59:43;;;;;;;18.03;10.73;;;22.60;89.10;;;;;;5073590;28;20645;-71
2023/02/09 02:02:11;;;;;;;29.93;11.53;;;22.60;88.80;;;;;;5073327;28;20262;-72
2023/02/09 02:04:41;;;;;;;20.93;11.20;;;22.60;88.60;;;;;;5074173;28;20184;-72
2023/02/09 02:07:17;;;;;;;25.43;11.67;;;22.80;89.00;;;;;;5073462;28;20866;-75
2023/02/09 02:09:46;;;;;;;20.70;9.20;;;22.70;88.80;;;;;;5070436;28;20236;-71
2023/02/09 02:12:14;;;;;;;22.57;7.80;;;22.80;87.90;;;;;;5072943;28;20196;-71
2023/02/09 02:14:42;;;;;;;19.07;6.73;;;23.10;87.50;;;;;;5072465;28;20638;-70
2023/02/09 02:17:33;;;;;;;20.13;5.87;;;23.60;86.50;;;;;;5072681;28;20260;-70
2023/02/09 02:20:16;;;;;;;24.37;5.80;;;24.20;85.10;;;;;;5071960;28;20183;-70
2023/02/09 02:22:59;;;;;;;16.93;3.83;;;24.50;83.40;;;;;;5073068;28;20183;-70
2023/02/09 02:25:48;;;;;;;28.60;5.50;;;24.40;82.70;;;;;;5068367;28;20672;-71
2023/02/09 02:28:39;;;;;;;18.97;3.60;;;24.40;82.70;;;;;;5072444;28;20674;-70
2023/02/09 02:31:30;;;;;;;16.00;3.47;;;24.30;82.90;;;;;;5072643;28;20543;-70
2023/02/09 02:34:08;;;;;;;17.33;4.00;;;23.80;82.90;;;;;;5073028;28;20566;-70
2023/02/09 02:37:09;;;;;;;12.53;3.70;;;23.70;84.10;;;;;;5073513;28;20221;-71
2023/02/09 02:40:10;;;;;;;14.70;4.20;;;23.50;83.50;;;;;;5072935;28;20691;-71
2023/02/09 02:42:50;;;;;;;20.87;4.47;;;23.60;83.10;;;;;;5072309;28;20270;-70
2023/02/09 02:45:44;;;;;;;21.80;4.50;;;23.80;82.70;;;;;;5072269;28;20624;-70
2023/02/09 02:48:17;;;;;;;18.00;4.10;;;23.80;82.70;;;;;;5071567;28;20228;-71
2023/02/09 02:50:57;;;;;;;16.20;3.57;;;23.90;83.50;;;;;;5072248;28;20228;-69
2023/02/09 02:53:29;;;;;;;17.23;3.60;;;24.00;82.70;;;;;;5072499;28;20226;-70
2023/02/09 02:56:02;;;;;;;22.23;4.17;;;24.10;81.60;;;;;;5068859;28;20245;-71
2023/02/09 02:58:30;;;;;;;21.27;3.60;;;23.90;82.70;;;;;;5066927;28;20263;-77
2023/02/09 03:01:00;;;;;;;18.03;4.60;;;23.80;83.50;;;;;;5071418;28;20179;-71
2023/02/09 03:03:33;;;;;;;17.00;3.77;;;24.10;83.60;;;;;;5070707;28;20175;-71
2023/02/09 03:06:03;;;;;;;17.50;3.80;;;24.40;82.10;;;;;;5071372;28;20228;-73
2023/02/09 03:08:44;;;;;;;18.13;3.67;;;24.60;82.10;;;;;;5068841;28;20197;-71
2023/02/09 03:11:12;;;;;;;19.23;3.73;;;24.40;82.00;;;;;;5070078;28;20551;-70
2023/02/09 03:13:59;;;;;;;17.77;3.33;;;24.40;82.80;;;;;;5069286;28;20185;-70
2023/02/09 03:16:36;;;;;;;18.00;3.80;;;24.00;82.40;;;;;;5069949;28;20221;-69
2023/02/09 03:19:25;;;;;;;16.70;4.00;;;23.80;82.90;;;;;;5068857;28;20190;-70
2023/02/09 03:22:06;;;;;;;19.27;4.57;;;23.40;83.90;;;;;;5065109;28;20198;-72
2023/02/09 03:24:45;;;;;;;19.57;4.17;;;23.40;84.70;;;;;;5070266;28;20833;-76
2023/02/09 03:27:17;;;;;;;16.17;4.20;;;23.30;84.40;;;;;;5068408;28;20179;-70
2023/02/09 03:29:54;;;;;;;17.87;4.53;;;23.30;84.80;;;;;;5070300;28;20228;-75
2023/02/09 03:32:23;;;;;;;20.57;4.07;;;23.10;84.80;;;;;;5070869;28;20175;-73
2023/02/09 03:34:51;;;;;;;18.83;4.40;;;22.80;85.00;;;;;;5069422;28;20201;-73
2023/02/09 03:37:19;;;;;;;19.47;4.70;;;22.70;85.30;;;;;;5065224;28;20707;-72
2023/02/09 03:39:46;;;;;;;17.47;4.63;;;22.70;85.90;;;;;;5064435;28;20184;-71
2023/02/09 03:42:14;;;;;;;24.37;6.60;;;22.60;85.70;;;;;;5070196;28;20183;-70
2023/02/09 03:44:41;;;;;;;29.30;8.13;;;22.60;87.10;;;;;;5069752;28;20532;-74
2023/02/09 03:47:09;;;;;;;23.97;10.23;;;22.40;88.90;;;;;;5065579;28;20191;-72
2023/02/09 03:49:39;;;;;;;21.73;10.27;;;22.20;89.70;;;;;;5063289;28;20188;-73
2023/02/09 03:52:09;;;;;;;27.17;14.37;;;22.00;90.30;;;;;;5068397;28;20234;-71
2023/02/09 03:54:37;;;;;;;45.83;22.17;;;21.60;91.10;;;;;;5070579;28;20179;-73
2023/02/09 03:57:05;;;;;;;35.40;29.97;;;21.40;92.10;;;;;;5069086;28;20223;-72
2023/02/09 03:59:36;;;;;;;39.63;34.60;;;21.20;92.60;;;;;;5070348;28;20222;-72
2023/02/09 04:02:07;;;;;;;38.27;34.17;;;21.00;92.80;;;;;;5067846;28;20179;-75
2023/02/09 04:04:34;;;;;;;46.27;42.30;;;21.00;93.00;;;;;;5069752;28;20183;-74
2023/02/09 04:07:02;;;;;;;49.57;45.73;;;21.00;93.00;;;;;;5066963;28;20179;-73
2023/02/09 04:09:29;;;;;;;55.57;50.40;;;21.10;93.00;;;;;;5069799;28;20184;-73
2023/02/09 04:11:56;;;;;;;58.17;52.97;;;21.20;92.80;;;;;;5068246;28;20226;-73
2023/02/09 04:14:24;;;;;;;44.77;40.70;;;21.20;92.70;;;;;;5066807;28;20222;-74
2023/02/09 04:16:51;;;;;;;40.43;27.17;;;21.10;92.00;;;;;;5067297;28;20218;-73
2023/02/09 04:19:18;;;;;;;27.30;24.40;;;21.30;92.20;;;;;;5058486;28;20190;-72
2023/02/09 04:21:46;;;;;;;27.77;22.43;;;21.90;92.20;;;;;;5059754;28;20676;-70
2023/02/09 04:24:13;;;;;;;17.63;14.03;;;22.40;91.60;;;;;;5066070;28;20241;-69
2023/02/09 04:26:40;;;;;;;13.23;8.63;;;23.20;90.80;;;;;;5063237;28;20184;-71
2023/02/09 04:29:08;;;;;;;11.27;7.90;;;23.60;87.40;;;;;;5063593;28;20179;-70
2023/02/09 04:31:35;;;;;;;11.70;7.17;;;23.50;83.10;;;;;;5070746;28;20191;-68
2023/02/09 04:34:02;;;;;;;11.73;6.00;;;23.50;83.20;;;;;;5065412;28;20191;-71
2023/02/09 04:36:30;;;;;;;10.33;5.67;;;23.70;82.80;;;;;;5063927;28;20264;-68
2023/02/09 04:38:57;;;;;;;10.90;5.77;;;23.70;82.50;;;;;;5065946;28;20179;-71
2023/02/09 04:41:25;;;;;;;8.87;5.90;;;23.70;83.30;;;;;;5069320;28;20186;-68
2023/02/09 04:43:52;;;;;;;12.33;4.73;;;23.30;83.90;;;;;;5070589;28;20711;-69
2023/02/09 04:46:20;;;;;;;8.93;3.63;;;22.80;84.10;;;;;;5065879;28;20194;-69
2023/02/09 04:48:47;;;;;;;5.20;3.10;;;22.30;85.00;;;;;;5069318;28;20182;-69
2023/02/09 04:51:14;;;;;;;5.83;3.27;;;22.00;85.50;;;;;;5068814;28;20327;-68
2023/02/09 04:53:42;;;;;;;4.70;4.30;;;21.80;86.70;;;;;;5068382;28;20227;-68
2023/02/09 04:56:13;;;;;;;5.93;4.70;;;21.80;87.90;;;;;;5070687;28;20256;-69
2023/02/09 05:01:26;;;;;;;8.00;7.37;;;21.70;88.80;;;;;;5070481;28;20664;-70
2023/02/09 05:03:54;;;;;;;11.03;9.97;;;21.70;89.20;;;;;;5065509;28;20192;-70
2023/02/09 05:06:21;;;;;;;14.10;12.83;;;21.80;89.90;;;;;;5069649;28;20195;-69
2023/02/09 05:08:49;;;;;;;12.90;11.37;;;21.80;89.90;;;;;;5069962;28;20203;-71
2023/02/09 05:11:16;;;;;;;14.87;12.93;;;21.70;89.40;;;;;;5064895;28;20191;-69
2023/02/09 05:13:43;;;;;;;13.23;12.23;;;21.50;89.60;;;;;;5071962;28;20637;-68
2023/02/09 05:16:16;;;;;;;13.13;11.57;;;21.40;89.50;;;;;;5072634;28;20226;-70
2023/02/09 05:18:44;;;;;;;13.27;12.03;;;21.30;89.40;;;;;;5072552;28;20226;-71
2023/02/09 05:21:13;;;;;;;14.10;12.70;;;21.20;89.40;;;;;;5069884;28;20188;-70
2023/02/09 05:23:40;;;;;;;16.00;13.27;;;21.20;89.50;;;;;;5073999;28;20192;-69
2023/02/09 05:26:08;;;;;;;19.97;14.17;;;21.20;89.20;;;;;;5073493;28;20190;-70
2023/02/09 05:28:35;;;;;;;18.83;14.00;;;21.20;89.40;;;;;;5074250;28;20179;-69
2023/02/09 05:31:03;;;;;;;24.93;15.87;;;21.20;89.50;;;;;;5070538;28;20650;-69
2023/02/09 05:33:31;;;;;;;22.63;14.97;;;21.20;89.10;;;;;;5074124;28;20651;-69
2023/02/09 05:35:58;;;;;;;20.00;14.47;;;21.30;89.00;;;;;;5069915;28;20292;-70
2023/02/09 05:38:26;;;;;;;18.70;11.40;;;21.70;89.20;;;;;;5070247;28;20183;-68
2023/02/09 05:40:53;;;;;;;20.57;10.73;;;21.60;87.40;;;;;;5066414;28;20184;-72
2023/02/09 05:43:20;;;;;;;20.90;9.93;;;21.60;88.10;;;;;;5067980;28;20212;-70
2023/02/09 05:45:48;;;;;;;20.30;9.20;;;21.70;88.30;;;;;;5070801;28;20182;-70
2023/02/09 05:48:15;;;;;;;20.47;8.60;;;21.80;88.10;;;;;;5066918;28;20232;-71
2023/02/09 05:50:42;;;;;;;20.13;6.23;;;21.90;87.70;;;;;;5068695;28;20266;-71
2023/02/09 05:53:10;;;;;;;22.63;6.97;;;21.90;86.80;;;;;;5066829;28;20219;-71
2023/02/09 05:55:37;;;;;;;19.93;6.80;;;22.00;87.10;;;;;;5069358;28;20281;-70
2023/02/09 05:58:05;;;;;;;24.13;6.27;;;22.50;86.90;;;;;;5065334;28;20171;-71
2023/02/09 06:00:32;;;;;;;25.30;4.87;;;23.30;84.90;;;;;;5072958;28;20179;-71
2023/02/09 06:03:00;;;;;;;26.50;5.30;;;23.20;83.30;;;;;;5067893;28;20180;-70
2023/02/09 06:05:28;;;;;;;24.47;5.97;;;22.90;83.70;;;;;;5069341;28;20183;-71
2023/02/09 06:07:57;;;;;;;21.57;5.53;;;22.80;84.20;;;;;;5070310;28;21418;-72
2023/02/09 06:10:24;;;;;;;15.27;4.73;;;22.80;84.10;;;;;;5065910;28;20236;-72
2023/02/09 06:12:51;;;;;;;20.93;5.30;;;22.50;84.20;;;;;;5071736;28;20176;-72
2023/02/09 06:15:19;;;;;;;26.27;5.43;;;22.30;84.50;;;;;;5070748;28;20661;-71
2023/02/09 06:17:47;;;;;;;21.13;5.20;;;22.10;85.40;;;;;;5073659;28;20279;-71
2023/02/09 06:20:14;;;;;;;25.20;5.73;;;22.00;86.00;;;;;;5073265;28;20223;-71
2023/02/09 06:22:41;;;;;;;24.60;5.80;;;22.00;86.50;;;;;;5073120;28;20237;-71
2023/02/09 06:25:09;;;;;;;33.37;7.53;;;22.00;87.00;;;;;;5070133;28;20198;-71
2023/02/09 06:27:36;;;;;;;24.00;6.27;;;22.00;87.20;;;;;;5068828;28;20175;-70
2023/02/09 06:30:04;;;;;;;18.77;6.77;;;22.20;87.70;;;;;;5062596;28;20600;-71
2023/02/09 06:32:31;;;;;;;26.93;8.27;;;22.20;88.00;;;;;;5071917;28;20183;-71
2023/02/09 06:34:59;;;;;;;27.67;8.37;;;22.20;88.20;;;;;;5067243;28;20214;-71
2023/02/09 06:37:26;;;;;;;26.67;7.93;;;22.30;88.10;;;;;;5067943;28;20626;-72
2023/02/09 06:39:53;;;;;;;26.50;5.50;;;22.70;86.90;;;;;;5064883;28;20203;-70
2023/02/09 06:42:21;;;;;;;22.97;4.50;;;22.80;85.30;;;;;;5064261;28;20182;-69
2023/02/09 06:44:48;;;;;;;22.10;4.83;;;22.40;85.20;;;;;;5067469;28;20636;-70
2023/02/09 06:47:16;;;;;;;23.30;5.43;;;22.20;85.90;;;;;;5064652;28;20183;-70
2023/02/09 06:49:44;;;;;;;15.27;4.13;;;22.20;86.30;;;;;;5063941;28;20227;-71
2023/02/09 06:52:11;;;;;;;20.57;3.97;;;22.20;85.60;;;;;;5069690;28;20219;-70
2023/02/09 06:54:38;;;;;;;21.27;4.13;;;22.30;84.80;;;;;;5070416;28;20197;-70
2023/02/09 06:57:05;;;;;;;18.77;3.53;;;22.60;83.60;;;;;;5064085;28;21482;-70
2023/02/09 06:59:33;;;;;;;19.50;3.60;;;22.80;82.90;;;;;;5065552;28;20186;-70
2023/02/09 07:02:00;;;;;;;20.03;4.07;;;22.40;83.10;;;;;;5065206;28;20275;-70
2023/02/09 07:04:27;;;;;;;18.17;3.13;;;23.10;82.10;;;;;;5068391;28;20256;-71
2023/02/09 07:06:55;;;;;;;14.10;3.03;;;23.30;78.80;;;;;;5070368;28;20183;-72
2023/02/09 07:09:22;;;;;;;15.13;2.90;;;22.90;79.50;;;;;;5066803;28;20218;-70
2023/02/09 07:11:49;;;;;;;19.90;3.60;;;23.50;79.10;;;;;;5067378;28;20199;-71
2023/02/09 07:14:17;;;;;;;18.90;3.50;;;23.80;77.80;;;;;;5069094;28;20183;-74
2023/02/09 07:16:44;;;;;;;28.13;4.03;;;23.90;77.50;;;;;;5065533;28;20910;-76
2023/02/09 07:19:11;;;;;;;13.20;3.50;;;24.20;77.50;;;;;;5068702;28;20185;-72
2023/02/09 07:21:39;;;;;;;16.67;3.27;;;24.30;77.20;;;;;;5070443;28;20718;-71
2023/02/09 07:24:06;;;;;;;16.43;3.70;;;24.40;77.00;;;;;;5064118;28;20652;-71
2023/02/09 07:26:33;;;;;;;14.07;3.87;;;24.50;76.50;;;;;;5067153;28;20194;-71
2023/02/09 07:29:01;;;;;;;15.87;4.67;;;24.40;78.00;;;;;;5069912;28;20179;-73
2023/02/09 07:31:29;;;;;;;19.03;3.03;;;24.10;78.20;;;;;;5067831;28;20191;-74
2023/02/09 07:33:57;;;;;;;13.50;3.13;;;24.50;77.10;;;;;;5071823;28;20179;-75
2023/02/09 07:36:24;;;;;;;17.60;4.33;;;24.00;77.50;;;;;;5070551;28;20203;-76
2023/02/09 07:38:51;;;;;;;17.73;2.93;;;23.70;78.90;;;;;;5071333;28;20638;-73
2023/02/09 07:41:25;;;;;;;24.57;4.30;;;23.20;79.50;;;;;;5071333;28;20245;-73
2023/02/09 07:43:52;;;;;;;18.87;3.77;;;22.80;81.20;;;;;;5072731;28;20186;-71
2023/02/09 07:46:21;;;;;;;15.20;3.13;;;22.50;82.80;;;;;;5065109;28;20183;-74
2023/02/09 07:48:49;;;;;;;17.03;3.30;;;22.30;83.40;;;;;;5069283;28;20190;-72
2023/02/09 07:51:19;;;;;;;16.17;3.40;;;22.10;83.30;;;;;;5067728;28;20183;-71
2023/02/09 07:53:47;;;;;;;21.03;3.97;;;22.10;83.90;;;;;;5072308;28;20270;-69
2023/02/09 07:56:15;;;;;;;17.87;3.47;;;21.90;83.40;;;;;;5071260;28;20227;-71
2023/02/09 07:58:42;;;;;;;20.57;4.07;;;21.70;83.40;;;;;;5070022;28;20233;-72
2023/02/09 08:01:12;;;;;;;14.97;3.60;;;21.50;84.00;;;;;;5069952;28;20187;-72
2023/02/09 08:03:42;;;;;;;18.03;3.23;;;21.50;84.10;;;;;;5070717;28;20695;-72
2023/02/09 08:06:34;;;;;;;20.97;4.17;;;21.40;84.20;;;;;;5068515;28;20230;-73
2023/02/09 08:09:01;;;;;;;20.17;3.93;;;21.50;84.70;;;;;;5067704;28;20257;-72
2023/02/09 08:11:33;;;;;;;24.70;4.40;;;21.50;84.80;;;;;;5070457;28;20582;-76
2023/02/09 08:14:04;;;;;;;26.87;4.63;;;21.50;85.20;;;;;;5068713;28;20195;-71
2023/02/09 08:16:33;;;;;;;22.97;4.47;;;21.50;85.60;;;;;;5071116;28;20332;-72
2023/02/09 08:19:09;;;;;;;24.20;4.83;;;21.50;85.90;;;;;;5067746;28;20591;-73
2023/02/09 08:21:39;;;;;;;19.97;4.73;;;21.50;86.20;;;;;;5071262;28;20621;-73
2023/02/09 08:24:08;;;;;;;15.60;5.40;;;21.40;85.90;;;;;;5071067;28;20190;-72
2023/02/09 08:26:36;;;;;;;22.23;5.37;;;21.30;86.30;;;;;;5064968;28;20198;-74
2023/02/09 08:29:03;;;;;;;27.63;6.13;;;21.30;86.60;;;;;;5069165;28;20187;-74
2023/02/09 08:31:31;;;;;;;26.40;5.90;;;21.30;86.60;;;;;;5064220;28;20179;-74
2023/02/09 08:33:58;;;;;;;22.93;6.87;;;21.30;86.90;;;;;;5069455;28;20642;-74
2023/02/09 08:36:25;;;;;;;22.40;7.30;;;21.30;87.00;;;;;;5067772;28;20213;-72
2023/02/09 08:38:52;;;;;;;18.57;6.27;;;21.30;87.00;;;;;;5066416;28;20197;-72
2023/02/09 08:41:20;;;;;;;21.83;6.70;;;21.30;87.40;;;;;;5066416;28;20187;-74
2023/02/09 08:43:48;;;;;;;15.47;6.87;;;21.30;87.60;;;;;;5069531;28;20182;-76
2023/02/09 08:46:17;;;;;;;20.50;7.50;;;21.30;88.00;;;;;;5069272;28;20194;-72
2023/02/09 08:48:46;;;;;;;25.60;8.00;;;21.30;87.90;;;;;;5074179;28;20588;-72
2023/02/09 08:51:14;;;;;;;16.53;6.80;;;21.30;88.10;;;;;;5070659;28;20262;-72
2023/02/09 08:53:42;;;;;;;20.43;7.50;;;21.30;88.20;;;;;;5071870;28;20218;-73
2023/02/09 08:56:10;;;;;;;16.50;7.83;;;21.30;88.30;;;;;;5074181;28;20199;-74
2023/02/09 08:58:37;;;;;;;22.00;7.83;;;21.30;88.20;;;;;;5071623;28;20183;-71
2023/02/09 09:01:05;;;;;;;22.77;8.27;;;21.30;88.20;;;;;;5074340;28;20679;-74
2023/02/09 09:03:32;;;;;;;16.77;7.90;;;21.30;88.20;;;;;;5066832;28;20222;-73
2023/02/09 09:06:05;;;;;;;21.77;8.60;;;21.30;88.30;;;;;;5070868;28;20195;-74
2023/02/09 09:08:35;;;;;;;23.97;9.60;;;21.20;88.30;;;;;;5073134;28;20246;-73
2023/02/09 09:11:02;;;;;;;17.23;9.77;;;21.20;88.50;;;;;;5067002;28;20587;-73
2023/02/09 09:13:30;;;;;;;22.77;10.53;;;21.20;88.70;;;;;;5073966;28;20179;-73
2023/02/09 09:15:57;;;;;;;25.43;11.00;;;21.20;88.90;;;;;;5073515;28;20221;-73
2023/02/09 09:18:25;;;;;;;22.00;11.47;;;21.20;89.10;;;;;;5064658;28;20189;-73
2023/02/09 09:20:55;;;;;;;20.50;12.03;;;21.20;89.20;;;;;;5074698;28;20179;-73
2023/02/09 09:23:22;;;;;;;22.50;12.00;;;21.20;89.30;;;;;;5073818;28;20191;-72
2023/02/09 09:25:49;;;;;;;21.03;10.70;;;21.10;89.20;;;;;;5068301;28;20295;-74
2023/02/09 09:28:17;;;;;;;22.73;12.73;;;21.10;89.40;;;;;;5070790;28;20553;-71
2023/02/09 09:30:44;;;;;;;24.27;11.47;;;21.10;89.50;;;;;;5071212;28;20186;-74
2023/02/09 09:33:11;;;;;;;22.67;11.13;;;21.10;89.60;;;;;;5070292;28;20706;-71
2023/02/09 09:35:39;;;;;;;17.00;10.03;;;21.10;89.60;;;;;;5074146;28;20210;-74
2023/02/09 09:38:06;;;;;;;17.17;10.20;;;21.10;89.60;;;;;;5072453;28;20190;-69
2023/02/09 09:40:38;;;;;;;26.60;11.60;;;21.10;89.50;;;;;;5071340;28;20175;-73
2023/02/09 09:43:35;;;;;;;17.60;10.97;;;21.20;89.70;;;;;;5073152;28;20210;-71
2023/02/09 09:46:05;;;;;;;20.93;13.10;;;21.20;89.70;;;;;;5071033;28;20565;-72
2023/02/09 09:48:40;;;;;;;23.43;12.10;;;21.20;89.60;;;;;;5070935;28;20203;-71
2023/02/09 09:51:15;;;;;;;28.37;14.17;;;21.10;89.70;;;;;;5065446;28;20606;-69
2023/02/09 09:53:45;;;;;;;18.23;12.07;;;21.10;89.90;;;;;;5066445;28;20211;-72
2023/02/09 09:56:13;;;;;;;22.80;12.63;;;21.20;89.80;;;;;;5072909;28;20261;-71
2023/02/09 09:58:43;;;;;;;19.87;13.07;;;21.10;89.90;;;;;;5073608;28;20279;-72
2023/02/09 10:01:16;;;;;;;22.97;13.37;;;21.10;89.80;;;;;;5072746;28;20191;-70
2023/02/09 10:03:44;;;;;;;20.27;12.20;;;21.10;89.90;;;;;;5070143;28;20196;-73
2023/02/09 10:06:20;;;;;;;20.10;12.77;;;21.10;89.80;;;;;;5071657;28;20661;-70
2023/02/09 10:09:02;;;;;;;27.50;13.30;;;21.00;89.90;;;;;;5065873;28;20179;-71
2023/02/09 10:11:37;;;;;;;29.47;14.07;;;21.00;89.80;;;;;;5066539;28;20187;-71
2023/02/09 10:14:04;;;;;;;26.37;14.83;;;21.00;89.90;;;;;;5069560;28;20197;-70
2023/02/09 10:16:36;;;;;;;33.40;14.63;;;21.00;89.90;;;;;;5073666;28;20215;-70
2023/02/09 10:19:16;;;;;;;21.80;14.07;;;21.00;90.00;;;;;;5069602;28;20187;-71
2023/02/09 10:21:43;;;;;;;21.73;13.57;;;21.10;90.10;;;;;;5071952;28;20214;-72
2023/02/09 10:24:25;;;;;;;22.73;13.20;;;21.00;90.00;;;;;;5072797;28;20167;-73
2023/02/09 10:27:06;;;;;;;17.50;12.90;;;21.00;90.00;;;;;;5068957;28;20798;-73
2023/02/09 10:29:34;;;;;;;24.10;12.20;;;21.00;90.00;;;;;;5068425;28;20187;-73
2023/02/09 10:32:04;;;;;;;21.03;12.23;;;20.90;89.80;;;;;;5068008;28;20281;-74
2023/02/09 10:34:42;;;;;;;26.20;11.97;;;20.90;90.00;;;;;;5073684;28;20673;-74
2023/02/09 10:37:26;;;;;;;18.80;13.57;;;20.90;90.00;;;;;;5068268;28;20206;-72
2023/02/09 10:40:00;;;;;;;20.73;12.90;;;20.80;90.00;;;;;;5064592;28;20229;-72
2023/02/09 10:42:32;;;;;;;18.13;11.73;;;20.90;90.00;;;;;;5072518;28;20187;-72
2023/02/09 10:45:08;;;;;;;23.60;13.20;;;20.80;90.00;;;;;;5072312;28;20224;-73
2023/02/09 10:47:36;;;;;;;28.23;13.60;;;20.80;90.00;;;;;;5071177;28;20684;-74
2023/02/09 10:50:17;;;;;;;18.53;11.47;;;20.80;89.80;;;;;;5070884;28;20191;-73
2023/02/09 10:52:59;;;;;;;17.13;11.67;;;20.70;89.70;;;;;;5072647;28;20845;-74
2023/02/09 10:55:37;;;;;;;20.43;12.50;;;20.70;89.90;;;;;;5069483;28;20225;-73
2023/02/09 10:58:09;;;;;;;21.87;13.50;;;20.70;89.90;;;;;;5068878;28;20244;-73
2023/02/09 11:00:57;;;;;;;22.03;13.17;;;20.70;89.90;;;;;;5069677;28;20183;-74
2023/02/09 11:03:24;;;;;;;23.13;12.97;;;20.70;90.00;;;;;;5070521;28;20278;-74
2023/02/09 11:06:14;;;;;;;20.30;12.60;;;20.60;90.10;;;;;;5072474;28;20190;-74
2023/02/09 11:08:52;;;;;;;21.77;12.30;;;20.60;90.00;;;;;;5061808;28;20183;-74
2023/02/09 11:11:30;;;;;;;22.10;13.70;;;20.60;90.10;;;;;;5070790;28;20194;-73
2023/02/09 11:13:58;;;;;;;22.50;12.43;;;20.60;90.00;;;;;;5064562;28;20167;-73
2023/02/09 11:16:32;;;;;;;18.73;12.03;;;20.60;89.80;;;;;;5066939;28;20306;-74
2023/02/09 11:19:12;;;;;;;16.17;10.87;;;20.50;89.70;;;;;;5071248;28;20186;-73
2023/02/09 11:22:07;;;;;;;16.13;11.03;;;20.50;89.70;;;;;;5069682;28;20182;-74
2023/02/09 11:25:00;;;;;;;17.60;11.10;;;20.50;89.60;;;;;;5068268;28;20187;-73
2023/02/09 11:27:52;;;;;;;15.10;11.40;;;20.60;89.70;;;;;;5067035;28;20179;-75
2023/02/09 11:30:30;;;;;;;17.63;10.60;;;20.50;89.40;;;;;;5067274;28;20274;-74
2023/02/09 11:33:10;;;;;;;15.27;10.30;;;20.50;89.30;;;;;;5066565;28;20263;-73
2023/02/09 11:36:03;;;;;;;14.27;9.93;;;20.50;89.30;;;;;;5070943;28;20187;-72
2023/02/09 11:38:43;;;;;;;11.50;9.67;;;20.60;89.10;;;;;;5070263;28;20175;-74
2023/02/09 11:44:03;;;;;;;12.97;8.37;;;20.40;88.50;;;;;;5070768;28;20634;-73
2023/02/09 11:46:33;;;;;;;15.43;8.67;;;20.30;88.60;;;;;;5067998;28;20229;-73
2023/02/09 11:49:17;;;;;;;16.67;8.73;;;20.30;88.70;;;;;;5067759;28;20240;-73
2023/02/09 11:51:47;;;;;;;11.13;7.97;;;20.30;88.70;;;;;;5071981;28;20187;-73
2023/02/09 11:54:22;;;;;;;13.23;9.30;;;20.40;88.80;;;;;;5066107;28;20187;-74
2023/02/09 11:56:53;;;;;;;15.27;9.63;;;20.40;89.00;;;;;;5068879;28;20694;-74
2023/02/09 11:59:36;;;;;;;11.63;8.20;;;20.40;89.00;;;;;;5070022;28;20221;-74
2023/02/09 12:02:21;;;;;;;12.33;7.53;;;20.30;88.80;;;;;;5069441;28;20247;-74
2023/02/09 12:04:56;;;;;;;12.10;8.40;;;20.30;88.80;;;;;;5068455;28;20214;-73
2023/02/09 12:07:35;;;;;;;12.13;8.10;;;20.30;88.90;;;;;;5068944;28;20197;-73
2023/02/09 12:10:12;;;;;;;15.13;9.00;;;20.30;88.90;;;;;;5069185;28;20637;-74
2023/02/09 12:13:28;;;;;;;9.23;7.93;;;20.30;88.90;;;;;;5069960;28;20175;-74
2023/02/09 12:16:07;;;;;;;10.10;8.03;;;20.30;89.00;;;;;;5067603;28;20222;-74
2023/02/09 12:18:36;;;;;;;14.30;8.43;;;20.30;89.20;;;;;;5069735;28;20652;-74
2023/02/09 12:21:05;;;;;;;13.83;8.43;;;20.30;89.30;;;;;;5071394;28;20703;-74
2023/02/09 12:23:41;;;;;;;16.00;8.63;;;20.30;89.40;;;;;;5069924;28;20183;-73
2023/02/09 12:26:11;;;;;;;15.33;8.23;;;20.20;89.50;;;;;;5071716;28;20179;-71
2023/02/09 12:29:02;;;;;;;11.87;8.30;;;20.20;89.50;;;;;;5071393;28;20345;-71
2023/02/09 12:31:51;;;;;;;13.93;8.50;;;20.30;89.70;;;;;;5069896;28;20226;-73
2023/02/09 12:34:27;;;;;;;13.20;7.83;;;20.20;89.60;;;;;;5070682;28;20233;-72
2023/02/09 12:37:18;;;;;;;10.47;8.20;;;20.10;89.60;;;;;;5071191;28;20214;-70
2023/02/09 12:40:10;;;;;;;13.07;9.07;;;20.10;89.70;;;;;;5071342;28;20186;-72
2023/02/09 12:42:46;;;;;;;14.57;8.80;;;20.00;89.80;;;;;;5068707;28;20184;-72
2023/02/09 12:45:35;;;;;;;12.77;9.67;;;20.00;89.90;;;;;;5072413;28;20187;-73
2023/02/09 12:48:09;;;;;;;13.53;9.53;;;20.00;89.90;;;;;;5069252;28;20266;-73
2023/02/09 12:50:53;;;;;;;15.33;9.73;;;19.90;90.00;;;;;;5071108;28;20551;-74
2023/02/09 12:53:31;;;;;;;18.67;11.10;;;19.90;90.10;;;;;;5069966;28;20311;-74
2023/02/09 12:56:11;;;;;;;14.77;11.30;;;19.90;90.40;;;;;;5069074;28;20562;-74
2023/02/09 12:58:44;;;;;;;19.50;11.50;;;19.90;90.20;;;;;;5069440;28;20194;-74
2023/02/09 13:01:16;;;;;;;15.83;11.10;;;19.80;90.30;;;;;;5066794;28;20171;-73
2023/02/09 13:04:04;;;;;;;17.77;11.77;;;19.80;90.40;;;;;;5068556;28;21460;-74